sensor_id;sensor_type;location;lat;lon;timestamp;P1;durP1;ratioP1;P2;durP2;ratioP2
16669;SDS011;8448;52.034;5.158;2023-02-02T00:00:31;13.17;;;2.63;;
16669;SDS011;8448;52.034;5.158;2023-02-02T00:02:59;5.83;;;1.77;;
16669;SDS011;8448;52.034;5.158;2023-02-02T00:05:26;6.67;;;1.83;;
16669;SDS011;8448;52.034;5.158;2023-02-02T00:07:53;7.00;;;1.53;;
16669;SDS011;8448;52.034;5.158;2023-02-02T00:10:21;6.60;;;1.73;;
16669;SDS011;8448;52.034;5.158;2023-02-02T00:12:49;7.25;;;2.10;;
16669;SDS011;8448;52.034;5.158;2023-02-02T00:15:18;8.33;;;1.97;;
16669;SDS011;8448;52.034;5.158;2023-02-02T00:17:45;6.73;;;1.63;;
16669;SDS011;8448;52.034;5.158;2023-02-02T00:20:12;10.70;;;2.20;;
16669;SDS011;8448;52.034;5.158;2023-02-02T00:22:40;10.10;;;2.53;;
16669;SDS011;8448;52.034;5.158;2023-02-02T00:25:08;12.93;;;2.80;;
16669;SDS011;8448;52.034;5.158;2023-02-02T00:27:35;18.47;;;3.30;;
16669;SDS011;8448;52.034;5.158;2023-02-02T00:30:05;15.83;;;3.30;;
16669;SDS011;8448;52.034;5.158;2023-02-02T00:32:33;15.45;;;3.90;;
16669;SDS011;8448;52.034;5.158;2023-02-02T00:35:00;15.47;;;3.27;;
16669;SDS011;8448;52.034;5.158;2023-02-02T00:37:28;16.60;;;3.03;;
16669;SDS011;8448;52.034;5.158;2023-02-02T00:39:55;16.77;;;3.80;;
16669;SDS011;8448;52.034;5.158;2023-02-02T00:42:23;16.33;;;3.80;;
16669;SDS011;8448;52.034;5.158;2023-02-02T00:44:50;15.27;;;4.23;;
16669;SDS011;8448;52.034;5.158;2023-02-02T00:47:36;16.87;;;3.40;;
16669;SDS011;8448;52.034;5.158;2023-02-02T00:50:04;14.57;;;3.67;;
16669;SDS011;8448;52.034;5.158;2023-02-02T00:52:32;14.50;;;3.57;;
16669;SDS011;8448;52.034;5.158;2023-02-02T00:54:59;14.87;;;2.70;;
16669;SDS011;8448;52.034;5.158;2023-02-02T00:57:27;10.23;;;2.53;;
16669;SDS011;8448;52.034;5.158;2023-02-02T00:59:55;15.37;;;2.53;;
16669;SDS011;8448;52.034;5.158;2023-02-02T01:02:22;12.40;;;2.90;;
16669;SDS011;8448;52.034;5.158;2023-02-02T01:04:51;12.13;;;2.63;;
16669;SDS011;8448;52.034;5.158;2023-02-02T01:07:19;8.77;;;2.00;;
16669;SDS011;8448;52.034;5.158;2023-02-02T01:09:46;9.37;;;2.30;;
16669;SDS011;8448;52.034;5.158;2023-02-02T01:12:13;9.10;;;2.23;;
16669;SDS011;8448;52.034;5.158;2023-02-02T01:14:41;7.50;;;2.10;;
16669;SDS011;8448;52.034;5.158;2023-02-02T01:17:08;8.80;;;2.20;;
16669;SDS011;8448;52.034;5.158;2023-02-02T01:19:36;9.57;;;2.13;;
16669;SDS011;8448;52.034;5.158;2023-02-02T01:22:05;10.37;;;2.30;;
16669;SDS011;8448;52.034;5.158;2023-02-02T01:24:32;9.67;;;2.67;;
16669;SDS011;8448;52.034;5.158;2023-02-02T01:26:59;10.90;;;3.00;;
16669;SDS011;8448;52.034;5.158;2023-02-02T01:29:28;10.70;;;2.77;;
16669;SDS011;8448;52.034;5.158;2023-02-02T01:31:56;7.60;;;2.50;;
16669;SDS011;8448;52.034;5.158;2023-02-02T01:34:23;9.27;;;2.40;;
16669;SDS011;8448;52.034;5.158;2023-02-02T01:36:51;12.23;;;3.33;;
16669;SDS011;8448;52.034;5.158;2023-02-02T01:39:19;11.73;;;3.30;;
16669;SDS011;8448;52.034;5.158;2023-02-02T01:41:47;9.43;;;3.20;;
16669;SDS011;8448;52.034;5.158;2023-02-02T01:47:20;11.57;;;4.03;;
16669;SDS011;8448;52.034;5.158;2023-02-02T01:49:48;14.60;;;4.13;;
16669;SDS011;8448;52.034;5.158;2023-02-02T01:52:16;14.97;;;4.00;;
16669;SDS011;8448;52.034;5.158;2023-02-02T01:54:47;16.63;;;3.67;;
16669;SDS011;8448;52.034;5.158;2023-02-02T01:57:16;19.10;;;3.83;;
16669;SDS011;8448;52.034;5.158;2023-02-02T01:59:48;15.07;;;3.90;;
16669;SDS011;8448;52.034;5.158;2023-02-02T02:02:16;15.77;;;3.73;;
16669;SDS011;8448;52.034;5.158;2023-02-02T02:04:43;22.70;;;4.80;;
16669;SDS011;8448;52.034;5.158;2023-02-02T02:07:10;20.10;;;4.00;;
16669;SDS011;8448;52.034;5.158;2023-02-02T02:09:38;21.53;;;4.30;;
16669;SDS011;8448;52.034;5.158;2023-02-02T02:12:10;20.43;;;3.83;;
16669;SDS011;8448;52.034;5.158;2023-02-02T02:14:40;17.37;;;3.87;;
16669;SDS011;8448;52.034;5.158;2023-02-02T02:17:30;27.73;;;4.70;;
16669;SDS011;8448;52.034;5.158;2023-02-02T02:20:28;12.93;;;3.57;;
16669;SDS011;8448;52.034;5.158;2023-02-02T02:23:53;19.43;;;4.10;;
16669;SDS011;8448;52.034;5.158;2023-02-02T02:26:55;19.47;;;4.27;;
16669;SDS011;8448;52.034;5.158;2023-02-02T02:29:40;17.77;;;3.27;;
16669;SDS011;8448;52.034;5.158;2023-02-02T02:32:31;17.77;;;3.80;;
16669;SDS011;8448;52.034;5.158;2023-02-02T02:35:05;15.20;;;3.73;;
16669;SDS011;8448;52.034;5.158;2023-02-02T02:37:37;14.43;;;3.53;;
16669;SDS011;8448;52.034;5.158;2023-02-02T02:40:08;17.27;;;3.63;;
16669;SDS011;8448;52.034;5.158;2023-02-02T02:42:40;19.37;;;3.63;;
16669;SDS011;8448;52.034;5.158;2023-02-02T02:45:11;15.53;;;4.10;;
16669;SDS011;8448;52.034;5.158;2023-02-02T02:47:40;19.07;;;4.00;;
16669;SDS011;8448;52.034;5.158;2023-02-02T02:50:08;25.23;;;4.20;;
16669;SDS011;8448;52.034;5.158;2023-02-02T02:52:36;18.27;;;4.10;;
16669;SDS011;8448;52.034;5.158;2023-02-02T02:55:04;23.77;;;4.53;;
16669;SDS011;8448;52.034;5.158;2023-02-02T02:57:37;13.20;;;3.53;;
16669;SDS011;8448;52.034;5.158;2023-02-02T03:00:12;18.27;;;3.80;;
16669;SDS011;8448;52.034;5.158;2023-02-02T03:02:55;19.90;;;3.90;;
16669;SDS011;8448;52.034;5.158;2023-02-02T03:05:26;20.13;;;4.10;;
16669;SDS011;8448;52.034;5.158;2023-02-02T03:08:00;17.63;;;3.83;;
16669;SDS011;8448;52.034;5.158;2023-02-02T03:10:33;21.23;;;3.87;;
16669;SDS011;8448;52.034;5.158;2023-02-02T03:13:03;15.13;;;3.30;;
16669;SDS011;8448;52.034;5.158;2023-02-02T03:15:33;18.23;;;4.37;;
16669;SDS011;8448;52.034;5.158;2023-02-02T03:18:01;17.90;;;4.00;;
16669;SDS011;8448;52.034;5.158;2023-02-02T03:20:29;20.43;;;3.93;;
16669;SDS011;8448;52.034;5.158;2023-02-02T03:22:56;16.67;;;3.83;;
16669;SDS011;8448;52.034;5.158;2023-02-02T03:25:24;20.00;;;3.80;;
16669;SDS011;8448;52.034;5.158;2023-02-02T03:27:51;13.13;;;3.30;;
16669;SDS011;8448;52.034;5.158;2023-02-02T03:30:19;18.10;;;3.83;;
16669;SDS011;8448;52.034;5.158;2023-02-02T03:32:46;14.77;;;3.43;;
16669;SDS011;8448;52.034;5.158;2023-02-02T03:35:15;12.93;;;3.50;;
16669;SDS011;8448;52.034;5.158;2023-02-02T03:37:44;20.53;;;4.07;;
16669;SDS011;8448;52.034;5.158;2023-02-02T03:40:12;16.20;;;3.90;;
16669;SDS011;8448;52.034;5.158;2023-02-02T03:42:40;18.50;;;4.37;;
16669;SDS011;8448;52.034;5.158;2023-02-02T03:45:08;14.37;;;4.00;;
16669;SDS011;8448;52.034;5.158;2023-02-02T03:47:35;16.60;;;3.57;;
16669;SDS011;8448;52.034;5.158;2023-02-02T03:50:03;16.10;;;3.57;;
16669;SDS011;8448;52.034;5.158;2023-02-02T03:52:32;18.33;;;4.03;;
16669;SDS011;8448;52.034;5.158;2023-02-02T03:55:00;20.20;;;3.67;;
16669;SDS011;8448;52.034;5.158;2023-02-02T03:57:27;18.70;;;3.80;;
16669;SDS011;8448;52.034;5.158;2023-02-02T03:59:54;20.53;;;4.03;;
16669;SDS011;8448;52.034;5.158;2023-02-02T04:02:22;15.20;;;3.80;;
16669;SDS011;8448;52.034;5.158;2023-02-02T04:04:49;17.73;;;3.47;;
16669;SDS011;8448;52.034;5.158;2023-02-02T04:07:16;19.30;;;4.13;;
16669;SDS011;8448;52.034;5.158;2023-02-02T04:09:45;19.27;;;3.27;;
16669;SDS011;8448;52.034;5.158;2023-02-02T04:12:12;19.40;;;3.83;;
16669;SDS011;8448;52.034;5.158;2023-02-02T04:14:40;17.50;;;3.13;;
16669;SDS011;8448;52.034;5.158;2023-02-02T04:17:07;21.50;;;3.87;;
16669;SDS011;8448;52.034;5.158;2023-02-02T04:19:35;16.80;;;3.40;;
16669;SDS011;8448;52.034;5.158;2023-02-02T04:22:02;12.20;;;2.93;;
16669;SDS011;8448;52.034;5.158;2023-02-02T04:24:30;19.17;;;3.10;;
16669;SDS011;8448;52.034;5.158;2023-02-02T04:26:59;20.97;;;3.57;;
16669;SDS011;8448;52.034;5.158;2023-02-02T04:29:26;21.00;;;3.60;;
16669;SDS011;8448;52.034;5.158;2023-02-02T04:31:53;18.47;;;3.17;;
16669;SDS011;8448;52.034;5.158;2023-02-02T04:34:21;16.90;;;2.83;;
16669;SDS011;8448;52.034;5.158;2023-02-02T04:36:48;13.93;;;2.90;;
16669;SDS011;8448;52.034;5.158;2023-02-02T04:39:15;15.23;;;3.13;;
16669;SDS011;8448;52.034;5.158;2023-02-02T04:41:43;18.10;;;3.23;;
16669;SDS011;8448;52.034;5.158;2023-02-02T04:44:13;15.43;;;4.03;;
16669;SDS011;8448;52.034;5.158;2023-02-02T04:46:41;19.73;;;3.63;;
16669;SDS011;8448;52.034;5.158;2023-02-02T04:49:08;18.60;;;3.47;;
16669;SDS011;8448;52.034;5.158;2023-02-02T04:51:36;16.07;;;3.30;;
16669;SDS011;8448;52.034;5.158;2023-02-02T04:54:04;18.90;;;3.27;;
16669;SDS011;8448;52.034;5.158;2023-02-02T04:56:31;18.07;;;3.50;;
16669;SDS011;8448;52.034;5.158;2023-02-02T04:58:58;12.77;;;2.97;;
16669;SDS011;8448;52.034;5.158;2023-02-02T05:01:27;17.90;;;3.33;;
16669;SDS011;8448;52.034;5.158;2023-02-02T05:03:55;20.13;;;3.57;;
16669;SDS011;8448;52.034;5.158;2023-02-02T05:06:22;13.20;;;3.43;;
16669;SDS011;8448;52.034;5.158;2023-02-02T05:08:50;18.73;;;3.67;;
16669;SDS011;8448;52.034;5.158;2023-02-02T05:11:18;15.83;;;3.37;;
16669;SDS011;8448;52.034;5.158;2023-02-02T05:13:47;18.13;;;3.63;;
16669;SDS011;8448;52.034;5.158;2023-02-02T05:16:16;15.17;;;3.43;;
16669;SDS011;8448;52.034;5.158;2023-02-02T05:18:48;15.83;;;3.67;;
16669;SDS011;8448;52.034;5.158;2023-02-02T05:21:16;15.03;;;3.73;;
16669;SDS011;8448;52.034;5.158;2023-02-02T05:23:43;15.53;;;3.10;;
16669;SDS011;8448;52.034;5.158;2023-02-02T05:26:11;13.50;;;3.13;;
16669;SDS011;8448;52.034;5.158;2023-02-02T05:28:41;13.87;;;3.40;;
16669;SDS011;8448;52.034;5.158;2023-02-02T05:31:08;13.33;;;2.80;;
16669;SDS011;8448;52.034;5.158;2023-02-02T05:33:36;15.53;;;3.40;;
16669;SDS011;8448;52.034;5.158;2023-02-02T05:36:05;18.23;;;3.07;;
16669;SDS011;8448;52.034;5.158;2023-02-02T05:38:33;12.90;;;3.00;;
16669;SDS011;8448;52.034;5.158;2023-02-02T05:41:00;13.90;;;2.93;;
16669;SDS011;8448;52.034;5.158;2023-02-02T05:43:28;13.60;;;3.30;;
16669;SDS011;8448;52.034;5.158;2023-02-02T05:45:56;15.77;;;3.13;;
16669;SDS011;8448;52.034;5.158;2023-02-02T05:48:24;18.93;;;3.70;;
16669;SDS011;8448;52.034;5.158;2023-02-02T05:50:54;17.23;;;2.90;;
16669;SDS011;8448;52.034;5.158;2023-02-02T05:53:27;12.40;;;3.00;;
16669;SDS011;8448;52.034;5.158;2023-02-02T05:55:55;11.50;;;3.03;;
16669;SDS011;8448;52.034;5.158;2023-02-02T05:58:22;13.70;;;2.80;;
16669;SDS011;8448;52.034;5.158;2023-02-02T06:00:50;14.20;;;3.17;;
16669;SDS011;8448;52.034;5.158;2023-02-02T06:03:17;13.30;;;3.13;;
16669;SDS011;8448;52.034;5.158;2023-02-02T06:05:45;14.80;;;2.80;;
16669;SDS011;8448;52.034;5.158;2023-02-02T06:08:12;15.93;;;3.20;;
16669;SDS011;8448;52.034;5.158;2023-02-02T06:10:41;12.50;;;2.90;;
16669;SDS011;8448;52.034;5.158;2023-02-02T06:13:08;19.80;;;3.43;;
16669;SDS011;8448;52.034;5.158;2023-02-02T06:15:36;11.00;;;2.70;;
16669;SDS011;8448;52.034;5.158;2023-02-02T06:18:03;14.27;;;2.97;;
16669;SDS011;8448;52.034;5.158;2023-02-02T06:20:32;15.27;;;3.63;;
16669;SDS011;8448;52.034;5.158;2023-02-02T06:23:00;15.97;;;3.90;;
16669;SDS011;8448;52.034;5.158;2023-02-02T06:25:28;14.87;;;3.33;;
16669;SDS011;8448;52.034;5.158;2023-02-02T06:27:57;14.07;;;4.63;;
16669;SDS011;8448;52.034;5.158;2023-02-02T06:30:24;18.70;;;3.90;;
16669;SDS011;8448;52.034;5.158;2023-02-02T06:32:52;15.93;;;4.00;;
16669;SDS011;8448;52.034;5.158;2023-02-02T06:35:20;20.27;;;5.53;;
16669;SDS011;8448;52.034;5.158;2023-02-02T06:37:47;15.90;;;4.47;;
16669;SDS011;8448;52.034;5.158;2023-02-02T06:40:15;20.90;;;5.10;;
16669;SDS011;8448;52.034;5.158;2023-02-02T06:42:43;18.40;;;3.37;;
16669;SDS011;8448;52.034;5.158;2023-02-02T06:45:11;15.90;;;3.57;;
16669;SDS011;8448;52.034;5.158;2023-02-02T06:47:39;15.77;;;3.33;;
16669;SDS011;8448;52.034;5.158;2023-02-02T06:50:06;16.95;;;4.13;;
16669;SDS011;8448;52.034;5.158;2023-02-02T06:52:35;16.80;;;3.87;;
16669;SDS011;8448;52.034;5.158;2023-02-02T06:55:02;16.40;;;3.70;;
16669;SDS011;8448;52.034;5.158;2023-02-02T06:57:30;11.63;;;3.37;;
16669;SDS011;8448;52.034;5.158;2023-02-02T06:59:57;12.83;;;3.40;;
16669;SDS011;8448;52.034;5.158;2023-02-02T07:02:26;21.17;;;3.90;;
16669;SDS011;8448;52.034;5.158;2023-02-02T07:04:53;17.20;;;4.07;;
16669;SDS011;8448;52.034;5.158;2023-02-02T07:07:21;13.13;;;3.40;;
16669;SDS011;8448;52.034;5.158;2023-02-02T07:09:48;14.27;;;3.40;;
16669;SDS011;8448;52.034;5.158;2023-02-02T07:12:15;12.57;;;3.80;;
16669;SDS011;8448;52.034;5.158;2023-02-02T07:14:43;19.77;;;3.90;;
16669;SDS011;8448;52.034;5.158;2023-02-02T07:17:11;13.50;;;4.10;;
16669;SDS011;8448;52.034;5.158;2023-02-02T07:19:39;18.13;;;4.03;;
16669;SDS011;8448;52.034;5.158;2023-02-02T07:22:07;11.47;;;3.70;;
16669;SDS011;8448;52.034;5.158;2023-02-02T07:24:34;14.97;;;3.50;;
16669;SDS011;8448;52.034;5.158;2023-02-02T07:27:02;15.77;;;4.00;;
16669;SDS011;8448;52.034;5.158;2023-02-02T07:29:30;15.03;;;3.93;;
16669;SDS011;8448;52.034;5.158;2023-02-02T07:31:57;19.07;;;4.37;;
16669;SDS011;8448;52.034;5.158;2023-02-02T07:34:25;14.83;;;3.73;;
16669;SDS011;8448;52.034;5.158;2023-02-02T07:36:53;17.53;;;4.30;;
16669;SDS011;8448;52.034;5.158;2023-02-02T07:39:21;16.80;;;4.03;;
16669;SDS011;8448;52.034;5.158;2023-02-02T07:41:48;13.13;;;3.47;;
16669;SDS011;8448;52.034;5.158;2023-02-02T07:44:28;18.37;;;3.70;;
16669;SDS011;8448;52.034;5.158;2023-02-02T07:46:55;22.60;;;3.73;;
16669;SDS011;8448;52.034;5.158;2023-02-02T07:49:22;15.87;;;3.90;;
16669;SDS011;8448;52.034;5.158;2023-02-02T07:51:50;18.40;;;3.80;;
16669;SDS011;8448;52.034;5.158;2023-02-02T07:54:18;14.30;;;3.40;;
16669;SDS011;8448;52.034;5.158;2023-02-02T07:56:46;15.07;;;3.20;;
16669;SDS011;8448;52.034;5.158;2023-02-02T07:59:13;15.37;;;3.43;;
16669;SDS011;8448;52.034;5.158;2023-02-02T08:01:41;13.83;;;3.70;;
16669;SDS011;8448;52.034;5.158;2023-02-02T08:04:08;16.83;;;3.83;;
16669;SDS011;8448;52.034;5.158;2023-02-02T08:06:38;10.50;;;3.30;;
16669;SDS011;8448;52.034;5.158;2023-02-02T08:09:07;16.33;;;3.90;;
16669;SDS011;8448;52.034;5.158;2023-02-02T08:11:36;19.13;;;3.87;;
16669;SDS011;8448;52.034;5.158;2023-02-02T08:14:04;19.33;;;3.40;;
16669;SDS011;8448;52.034;5.158;2023-02-02T08:16:32;14.13;;;3.43;;
16669;SDS011;8448;52.034;5.158;2023-02-02T08:19:00;14.97;;;3.20;;
16669;SDS011;8448;52.034;5.158;2023-02-02T08:21:27;19.00;;;3.60;;
16669;SDS011;8448;52.034;5.158;2023-02-02T08:23:54;15.53;;;3.40;;
16669;SDS011;8448;52.034;5.158;2023-02-02T08:26:22;19.53;;;3.27;;
16669;SDS011;8448;52.034;5.158;2023-02-02T08:28:52;11.13;;;2.80;;
16669;SDS011;8448;52.034;5.158;2023-02-02T08:31:21;13.13;;;3.67;;
16669;SDS011;8448;52.034;5.158;2023-02-02T08:33:51;14.50;;;3.10;;
16669;SDS011;8448;52.034;5.158;2023-02-02T08:36:19;14.13;;;2.90;;
16669;SDS011;8448;52.034;5.158;2023-02-02T08:38:48;18.53;;;3.40;;
16669;SDS011;8448;52.034;5.158;2023-02-02T08:41:16;16.23;;;3.07;;
16669;SDS011;8448;52.034;5.158;2023-02-02T08:43:45;15.03;;;3.27;;
16669;SDS011;8448;52.034;5.158;2023-02-02T08:46:14;15.90;;;3.10;;
16669;SDS011;8448;52.034;5.158;2023-02-02T08:48:43;19.03;;;2.90;;
16669;SDS011;8448;52.034;5.158;2023-02-02T08:51:11;14.17;;;3.10;;
16669;SDS011;8448;52.034;5.158;2023-02-02T08:53:39;20.57;;;3.37;;
16669;SDS011;8448;52.034;5.158;2023-02-02T08:56:08;15.57;;;3.50;;
16669;SDS011;8448;52.034;5.158;2023-02-02T08:58:37;15.47;;;3.07;;
16669;SDS011;8448;52.034;5.158;2023-02-02T09:01:05;18.23;;;3.30;;
16669;SDS011;8448;52.034;5.158;2023-02-02T09:03:35;16.17;;;3.27;;
16669;SDS011;8448;52.034;5.158;2023-02-02T09:06:04;16.40;;;3.17;;
16669;SDS011;8448;52.034;5.158;2023-02-02T09:08:32;22.03;;;3.70;;
16669;SDS011;8448;52.034;5.158;2023-02-02T09:11:04;14.33;;;3.30;;
16669;SDS011;8448;52.034;5.158;2023-02-02T09:13:32;14.57;;;3.17;;
16669;SDS011;8448;52.034;5.158;2023-02-02T09:16:00;13.73;;;3.40;;
16669;SDS011;8448;52.034;5.158;2023-02-02T09:18:28;14.00;;;3.03;;
16669;SDS011;8448;52.034;5.158;2023-02-02T09:20:59;11.93;;;2.80;;
16669;SDS011;8448;52.034;5.158;2023-02-02T09:23:28;12.57;;;3.13;;
16669;SDS011;8448;52.034;5.158;2023-02-02T09:25:56;15.37;;;3.00;;
16669;SDS011;8448;52.034;5.158;2023-02-02T09:28:29;14.00;;;3.13;;
16669;SDS011;8448;52.034;5.158;2023-02-02T09:30:59;12.57;;;2.80;;
16669;SDS011;8448;52.034;5.158;2023-02-02T09:33:27;15.27;;;3.17;;
16669;SDS011;8448;52.034;5.158;2023-02-02T09:35:54;15.97;;;3.53;;
16669;SDS011;8448;52.034;5.158;2023-02-02T09:38:23;14.67;;;3.10;;
16669;SDS011;8448;52.034;5.158;2023-02-02T09:40:50;14.80;;;3.17;;
16669;SDS011;8448;52.034;5.158;2023-02-02T09:43:23;12.40;;;3.07;;
16669;SDS011;8448;52.034;5.158;2023-02-02T09:45:59;11.63;;;2.80;;
16669;SDS011;8448;52.034;5.158;2023-02-02T09:48:32;12.33;;;2.73;;
16669;SDS011;8448;52.034;5.158;2023-02-02T09:51:04;14.03;;;3.50;;
16669;SDS011;8448;52.034;5.158;2023-02-02T09:53:38;15.40;;;3.57;;
16669;SDS011;8448;52.034;5.158;2023-02-02T09:56:10;10.33;;;3.10;;
16669;SDS011;8448;52.034;5.158;2023-02-02T09:58:44;12.40;;;3.03;;
16669;SDS011;8448;52.034;5.158;2023-02-02T10:01:16;20.17;;;3.20;;
16669;SDS011;8448;52.034;5.158;2023-02-02T10:03:50;12.90;;;3.53;;
16669;SDS011;8448;52.034;5.158;2023-02-02T10:06:27;14.37;;;3.40;;
16669;SDS011;8448;52.034;5.158;2023-02-02T10:09:02;14.70;;;3.77;;
16669;SDS011;8448;52.034;5.158;2023-02-02T10:11:38;10.90;;;3.03;;
16669;SDS011;8448;52.034;5.158;2023-02-02T10:14:10;12.93;;;3.47;;
16669;SDS011;8448;52.034;5.158;2023-02-02T10:16:45;13.53;;;3.07;;
16669;SDS011;8448;52.034;5.158;2023-02-02T10:19:13;14.30;;;3.03;;
16669;SDS011;8448;52.034;5.158;2023-02-02T10:21:42;14.60;;;3.20;;
16669;SDS011;8448;52.034;5.158;2023-02-02T10:24:17;10.13;;;2.73;;
16669;SDS011;8448;52.034;5.158;2023-02-02T10:26:46;11.00;;;3.03;;
16669;SDS011;8448;52.034;5.158;2023-02-02T10:29:16;14.37;;;3.43;;
16669;SDS011;8448;52.034;5.158;2023-02-02T10:31:48;11.93;;;3.00;;
16669;SDS011;8448;52.034;5.158;2023-02-02T10:34:25;8.93;;;2.67;;
16669;SDS011;8448;52.034;5.158;2023-02-02T10:36:55;11.80;;;3.40;;
16669;SDS011;8448;52.034;5.158;2023-02-02T10:39:52;10.27;;;3.47;;
16669;SDS011;8448;52.034;5.158;2023-02-02T10:42:32;11.47;;;2.80;;
16669;SDS011;8448;52.034;5.158;2023-02-02T10:45:08;18.50;;;3.73;;
16669;SDS011;8448;52.034;5.158;2023-02-02T10:47:38;10.13;;;2.87;;
16669;SDS011;8448;52.034;5.158;2023-02-02T10:50:13;18.60;;;3.10;;
16669;SDS011;8448;52.034;5.158;2023-02-02T10:52:42;12.37;;;2.80;;
16669;SDS011;8448;52.034;5.158;2023-02-02T10:55:16;9.70;;;2.67;;
16669;SDS011;8448;52.034;5.158;2023-02-02T10:57:49;13.53;;;2.63;;
16669;SDS011;8448;52.034;5.158;2023-02-02T11:00:24;15.97;;;3.03;;
16669;SDS011;8448;52.034;5.158;2023-02-02T11:02:54;10.07;;;2.77;;
16669;SDS011;8448;52.034;5.158;2023-02-02T11:05:23;11.53;;;2.50;;
16669;SDS011;8448;52.034;5.158;2023-02-02T11:08:14;6.87;;;2.07;;
16669;SDS011;8448;52.034;5.158;2023-02-02T11:10:44;11.47;;;2.50;;
16669;SDS011;8448;52.034;5.158;2023-02-02T11:13:15;12.50;;;2.50;;
16669;SDS011;8448;52.034;5.158;2023-02-02T11:15:46;12.43;;;2.83;;
16669;SDS011;8448;52.034;5.158;2023-02-02T11:18:18;10.90;;;2.50;;
16669;SDS011;8448;52.034;5.158;2023-02-02T11:20:53;14.87;;;2.63;;
16669;SDS011;8448;52.034;5.158;2023-02-02T11:23:21;11.87;;;2.27;;
16669;SDS011;8448;52.034;5.158;2023-02-02T11:25:57;8.03;;;2.40;;
16669;SDS011;8448;52.034;5.158;2023-02-02T11:28:25;15.87;;;2.77;;
16669;SDS011;8448;52.034;5.158;2023-02-02T11:30:55;12.07;;;2.57;;
16669;SDS011;8448;52.034;5.158;2023-02-02T11:33:25;9.60;;;2.00;;
16669;SDS011;8448;52.034;5.158;2023-02-02T11:35:54;10.13;;;2.57;;
16669;SDS011;8448;52.034;5.158;2023-02-02T11:38:22;10.30;;;2.30;;
16669;SDS011;8448;52.034;5.158;2023-02-02T11:40:54;8.77;;;2.30;;
16669;SDS011;8448;52.034;5.158;2023-02-02T11:43:27;13.47;;;2.57;;
16669;SDS011;8448;52.034;5.158;2023-02-02T11:45:57;9.63;;;2.43;;
16669;SDS011;8448;52.034;5.158;2023-02-02T11:48:27;11.17;;;2.53;;
16669;SDS011;8448;52.034;5.158;2023-02-02T11:50:56;10.03;;;2.30;;
16669;SDS011;8448;52.034;5.158;2023-02-02T11:53:25;12.77;;;2.77;;
16669;SDS011;8448;52.034;5.158;2023-02-02T11:55:55;11.50;;;2.57;;
16669;SDS011;8448;52.034;5.158;2023-02-02T11:58:27;11.23;;;2.90;;
16669;SDS011;8448;52.034;5.158;2023-02-02T12:00:57;15.10;;;2.70;;
16669;SDS011;8448;52.034;5.158;2023-02-02T12:03:26;12.53;;;2.77;;
16669;SDS011;8448;52.034;5.158;2023-02-02T12:05:55;7.80;;;2.37;;
16669;SDS011;8448;52.034;5.158;2023-02-02T12:08:23;8.67;;;2.37;;
16669;SDS011;8448;52.034;5.158;2023-02-02T12:10:53;10.13;;;2.30;;
16669;SDS011;8448;52.034;5.158;2023-02-02T12:13:33;10.27;;;2.23;;
16669;SDS011;8448;52.034;5.158;2023-02-02T12:16:15;7.77;;;2.30;;
16669;SDS011;8448;52.034;5.158;2023-02-02T12:18:55;12.23;;;2.33;;
16669;SDS011;8448;52.034;5.158;2023-02-02T12:21:32;9.67;;;2.43;;
16669;SDS011;8448;52.034;5.158;2023-02-02T12:24:09;13.67;;;2.40;;
16669;SDS011;8448;52.034;5.158;2023-02-02T12:26:49;10.57;;;2.40;;
16669;SDS011;8448;52.034;5.158;2023-02-02T12:32:02;13.50;;;2.57;;
16669;SDS011;8448;52.034;5.158;2023-02-02T12:34:37;10.23;;;2.10;;
16669;SDS011;8448;52.034;5.158;2023-02-02T12:37:12;13.60;;;2.40;;
16669;SDS011;8448;52.034;5.158;2023-02-02T12:39:49;10.20;;;2.20;;
16669;SDS011;8448;52.034;5.158;2023-02-02T12:42:31;8.17;;;2.33;;
16669;SDS011;8448;52.034;5.158;2023-02-02T12:48:10;11.07;;;2.40;;
16669;SDS011;8448;52.034;5.158;2023-02-02T12:50:48;14.77;;;2.60;;
16669;SDS011;8448;52.034;5.158;2023-02-02T12:53:27;10.43;;;2.53;;
16669;SDS011;8448;52.034;5.158;2023-02-02T12:56:03;9.70;;;2.80;;
16669;SDS011;8448;52.034;5.158;2023-02-02T12:58:37;15.17;;;2.87;;
16669;SDS011;8448;52.034;5.158;2023-02-02T13:01:21;9.90;;;2.83;;
16669;SDS011;8448;52.034;5.158;2023-02-02T13:04:22;17.13;;;3.00;;
16669;SDS011;8448;52.034;5.158;2023-02-02T13:07:05;12.73;;;3.07;;
16669;SDS011;8448;52.034;5.158;2023-02-02T13:10:00;12.33;;;2.80;;
16669;SDS011;8448;52.034;5.158;2023-02-02T13:12:45;8.53;;;2.40;;
16669;SDS011;8448;52.034;5.158;2023-02-02T13:15:18;11.20;;;2.80;;
16669;SDS011;8448;52.034;5.158;2023-02-02T13:17:47;9.50;;;2.70;;
16669;SDS011;8448;52.034;5.158;2023-02-02T13:20:22;8.33;;;3.00;;
16669;SDS011;8448;52.034;5.158;2023-02-02T13:23:03;9.37;;;3.20;;
16669;SDS011;8448;52.034;5.158;2023-02-02T13:25:35;13.13;;;3.93;;
16669;SDS011;8448;52.034;5.158;2023-02-02T13:28:06;11.27;;;4.40;;
16669;SDS011;8448;52.034;5.158;2023-02-02T13:30:42;13.33;;;3.57;;
16669;SDS011;8448;52.034;5.158;2023-02-02T13:33:12;10.50;;;3.67;;
16669;SDS011;8448;52.034;5.158;2023-02-02T13:35:44;8.57;;;3.53;;
16669;SDS011;8448;52.034;5.158;2023-02-02T13:38:17;12.83;;;3.67;;
16669;SDS011;8448;52.034;5.158;2023-02-02T13:40:47;9.30;;;3.60;;
16669;SDS011;8448;52.034;5.158;2023-02-02T13:43:24;7.40;;;3.10;;
16669;SDS011;8448;52.034;5.158;2023-02-02T13:46:00;11.53;;;2.97;;
16669;SDS011;8448;52.034;5.158;2023-02-02T13:48:34;10.80;;;3.00;;
16669;SDS011;8448;52.034;5.158;2023-02-02T13:57:40;6.00;;;2.83;;
16669;SDS011;8448;52.034;5.158;2023-02-02T14:00:29;4.80;;;2.70;;
16669;SDS011;8448;52.034;5.158;2023-02-02T14:03:01;5.63;;;2.80;;
16669;SDS011;8448;52.034;5.158;2023-02-02T14:05:30;4.93;;;2.73;;
16669;SDS011;8448;52.034;5.158;2023-02-02T14:08:01;7.30;;;3.10;;
16669;SDS011;8448;52.034;5.158;2023-02-02T14:10:33;5.60;;;2.80;;
16669;SDS011;8448;52.034;5.158;2023-02-02T14:13:14;7.70;;;2.50;;
16669;SDS011;8448;52.034;5.158;2023-02-02T14:16:02;5.13;;;2.77;;
16669;SDS011;8448;52.034;5.158;2023-02-02T14:24:38;4.87;;;3.13;;
16669;SDS011;8448;52.034;5.158;2023-02-02T14:30:18;4.33;;;3.20;;
16669;SDS011;8448;52.034;5.158;2023-02-02T14:32:52;3.83;;;3.00;;
16669;SDS011;8448;52.034;5.158;2023-02-02T14:41:20;4.20;;;3.27;;
16669;SDS011;8448;52.034;5.158;2023-02-02T14:44:12;7.03;;;3.57;;
16669;SDS011;8448;52.034;5.158;2023-02-02T14:46:40;6.70;;;4.37;;
16669;SDS011;8448;52.034;5.158;2023-02-02T14:49:19;6.73;;;3.70;;
16669;SDS011;8448;52.034;5.158;2023-02-02T14:51:57;5.83;;;4.23;;
16669;SDS011;8448;52.034;5.158;2023-02-02T14:54:34;8.80;;;4.40;;
16669;SDS011;8448;52.034;5.158;2023-02-02T14:57:04;11.77;;;4.77;;
16669;SDS011;8448;52.034;5.158;2023-02-02T14:59:45;7.57;;;4.80;;
16669;SDS011;8448;52.034;5.158;2023-02-02T15:02:15;6.40;;;4.50;;
16669;SDS011;8448;52.034;5.158;2023-02-02T15:04:44;6.93;;;4.83;;
16669;SDS011;8448;52.034;5.158;2023-02-02T15:13:19;8.37;;;5.07;;
16669;SDS011;8448;52.034;5.158;2023-02-02T15:15:47;8.30;;;5.37;;
16669;SDS011;8448;52.034;5.158;2023-02-02T15:18:19;11.30;;;6.73;;
16669;SDS011;8448;52.034;5.158;2023-02-02T15:20:52;11.33;;;7.17;;
16669;SDS011;8448;52.034;5.158;2023-02-02T15:23:24;12.10;;;6.70;;
16669;SDS011;8448;52.034;5.158;2023-02-02T15:25:55;12.90;;;7.63;;
16669;SDS011;8448;52.034;5.158;2023-02-02T15:28:28;13.00;;;7.07;;
16669;SDS011;8448;52.034;5.158;2023-02-02T15:31:04;13.23;;;7.33;;
16669;SDS011;8448;52.034;5.158;2023-02-02T15:33:43;13.33;;;7.53;;
16669;SDS011;8448;52.034;5.158;2023-02-02T15:36:13;13.17;;;7.40;;
16669;SDS011;8448;52.034;5.158;2023-02-02T15:38:45;14.93;;;7.63;;
16669;SDS011;8448;52.034;5.158;2023-02-02T15:41:17;13.50;;;7.40;;
16669;SDS011;8448;52.034;5.158;2023-02-02T15:43:46;13.93;;;8.17;;
16669;SDS011;8448;52.034;5.158;2023-02-02T15:46:15;15.80;;;8.60;;
16669;SDS011;8448;52.034;5.158;2023-02-02T15:51:41;16.63;;;8.00;;